Time;durP1;ratioP1;P1;durP2;ratioP2;P2;SDS_P1;SDS_P2;PMS_P1;PMS_P2;Temp;Humidity;BMP_temperature;BMP_pressure;BME280_temperature;BME280_humidity;BME280_pressure;Samples;Min_cycle;Max_cycle;Signal;HPM_P1;HPM_P2
2021/06/02 00:01:46;;;;;;;7.90;4.00;;;409.70;1536.00;;;;;;5073373;28;20040;-68
2021/06/02 00:04:15;;;;;;;7.97;4.90;;;409.70;1561.60;;;;;;5073180;28;20043;-63
2021/06/02 00:06:43;;;;;;;8.88;4.80;;;409.60;1536.00;;;;;;5072767;28;20031;-68
2021/06/02 00:09:09;;;;;;;7.18;4.10;;;409.60;1536.00;;;;;;5072769;28;20035;-55
2021/06/02 00:11:36;;;;;;;7.53;4.63;;;409.60;1561.60;;;;;;5072752;28;20099;-67
2021/06/02 00:14:03;;;;;;;9.77;4.70;;;409.60;1561.60;;;;;;5072725;28;20037;-55
2021/06/02 00:16:30;;;;;;;12.05;4.68;;;384.90;1536.00;;;;;;5072993;28;20427;-55
2021/06/02 00:18:57;;;;;;;6.80;4.53;;;384.90;1536.00;;;;;;5070233;28;20052;-55
2021/06/02 00:21:23;;;;;;;6.88;4.57;;;384.90;1536.00;;;;;;5072230;28;20107;-55
2021/06/02 00:23:49;;;;;;;7.60;4.78;;;384.80;1561.60;;;;;;5074102;28;20056;-55
2021/06/02 00:26:16;;;;;;;6.95;4.30;;;384.80;1561.60;;;;;;5076164;28;20056;-55
2021/06/02 00:28:42;;;;;;;7.63;4.57;;;384.70;1561.60;;;;;;5075663;28;20059;-55
2021/06/02 00:31:10;;;;;;;8.20;4.30;;;384.70;1561.60;;;;;;5076087;28;20025;-55
2021/06/02 00:33:37;;;;;;;8.80;4.15;;;384.70;1561.60;;;;;;5076060;28;20048;-68
2021/06/02 00:36:03;;;;;;;6.00;3.90;;;384.70;1587.20;;;;;;5076170;28;20024;-55
2021/06/02 00:38:29;;;;;;;7.20;4.20;;;384.70;1587.20;;;;;;5075963;28;20060;-55
2021/06/02 00:40:55;;;;;;;7.40;4.50;;;384.60;1587.20;;;;;;5075942;28;20028;-55
2021/06/02 00:43:21;;;;;;;6.50;4.63;;;384.50;1612.80;;;;;;5075892;28;20393;-55
2021/06/02 00:45:47;;;;;;;6.03;4.32;;;384.50;1612.80;;;;;;5075819;28;20029;-62
2021/06/02 00:48:16;;;;;;;7.82;3.92;;;384.50;1612.80;;;;;;5075976;28;20040;-55
2021/06/02 00:50:47;;;;;;;7.90;4.20;;;384.40;1587.20;;;;;;5075778;28;20021;-66
2021/06/02 00:53:14;;;;;;;7.47;4.25;;;384.40;1612.80;;;;;;5075736;28;20024;-55
2021/06/02 00:55:41;;;;;;;5.88;4.20;;;384.40;1612.80;;;;;;5075601;28;20024;-67
2021/06/02 00:58:19;;;;;;;7.95;3.80;;;384.30;1612.80;;;;;;5075405;28;20055;-55
2021/06/02 01:00:45;;;;;;;7.05;3.80;;;384.30;1612.80;;;;;;5075568;28;20021;-55
2021/06/02 01:03:12;;;;;;;6.95;4.18;;;384.30;1587.20;;;;;;5075574;28;20078;-55
2021/06/02 01:05:39;;;;;;;9.90;4.15;;;384.30;1612.80;;;;;;5075418;28;20082;-68
2021/06/02 01:08:05;;;;;;;9.70;4.22;;;384.30;1612.80;;;;;;5075303;28;20035;-55
2021/06/02 01:10:31;;;;;;;7.47;3.90;;;384.30;1587.20;;;;;;5075854;28;20500;-55
2021/06/02 01:12:59;;;;;;;7.05;3.80;;;384.30;1612.80;;;;;;5075317;28;20078;-55
2021/06/02 01:15:26;;;;;;;7.18;3.58;;;384.20;1612.80;;;;;;5075249;28;20039;-55
2021/06/02 01:17:52;;;;;;;6.88;4.78;;;384.20;1587.20;;;;;;5073920;28;20124;-55
2021/06/02 01:20:19;;;;;;;7.15;4.32;;;384.20;1587.20;;;;;;5075215;28;20024;-68
2021/06/02 01:22:46;;;;;;;9.35;4.78;;;384.20;1612.80;;;;;;5075068;28;20029;-55
2021/06/02 01:25:17;;;;;;;6.10;4.25;;;384.20;1612.80;;;;;;5075070;28;20075;-67
2021/06/02 01:27:44;;;;;;;9.90;4.57;;;384.20;1612.80;;;;;;5075278;28;20485;-56
2021/06/02 01:30:17;;;;;;;6.82;4.30;;;384.20;1612.80;;;;;;5075018;28;20056;-67
2021/06/02 01:33:00;;;;;;;5.55;4.25;;;384.10;1612.80;;;;;;5074922;28;20025;-55
2021/06/02 01:35:50;;;;;;;7.05;4.72;;;384.10;1612.80;;;;;;5075018;28;20487;-67
2021/06/02 01:38:22;;;;;;;15.13;4.95;;;384.10;1612.80;;;;;;5074880;28;20099;-55
2021/06/02 01:40:57;;;;;;;13.48;3.97;;;384.10;1612.80;;;;;;5074756;28;20024;-55
2021/06/02 01:44:00;;;;;;;6.40;4.68;;;384.00;1612.80;;;;;;5074836;28;20029;-55
2021/06/02 01:46:29;;;;;;;7.00;4.82;;;384.00;1612.80;;;;;;5073384;28;20028;-55
2021/06/02 01:49:11;;;;;;;8.25;4.60;;;384.00;1612.80;;;;;;5074583;28;20033;-55
2021/06/02 01:51:52;;;;;;;7.43;4.93;;;384.00;1638.40;;;;;;5074816;28;20035;-68
2021/06/02 01:54:56;;;;;;;6.90;4.57;;;384.00;1638.40;;;;;;5074567;28;20029;-55
2021/06/02 01:57:35;;;;;;;7.68;4.50;;;359.30;1638.40;;;;;;5050378;28;20131;-55
2021/06/02 02:00:28;;;;;;;9.95;4.63;;;359.30;1638.40;;;;;;5074473;28;20111;-69
2021/06/02 02:03:25;;;;;;;10.10;4.85;;;359.20;1638.40;;;;;;5074421;28;20214;-55
2021/06/02 02:05:58;;;;;;;11.23;4.95;;;359.20;1664.00;;;;;;5074481;28;20107;-67
2021/06/02 02:08:45;;;;;;;9.00;4.45;;;359.20;1638.40;;;;;;5074452;28;20381;-55
2021/06/02 02:11:36;;;;;;;8.30;4.60;;;359.20;1638.40;;;;;;5074504;28;20021;-68
2021/06/02 02:14:12;;;;;;;11.15;5.63;;;359.10;1664.00;;;;;;5074375;28;20101;-55
2021/06/02 02:17:13;;;;;;;7.88;5.05;;;359.20;1945.60;;;;;;5072862;28;20044;-67
2021/06/02 02:19:58;;;;;;;8.75;4.60;;;359.20;1664.00;;;;;;5032053;28;20029;-55
2021/06/02 02:23:21;;;;;;;13.98;5.05;;;359.20;1638.40;;;;;;5070747;28;20481;-55
2021/06/02 02:25:58;;;;;;;8.20;4.85;;;359.10;1664.00;;;;;;5032077;28;20096;-55
2021/06/02 02:28:24;;;;;;;4.82;3.80;;;359.10;1664.00;;;;;;5031866;28;20045;-55
2021/06/02 02:30:58;;;;;;;10.57;5.10;;;359.10;1664.00;;;;;;5032012;28;20029;-55
2021/06/02 02:33:32;;;;;;;6.32;4.40;;;359.00;1664.00;;;;;;5032201;28;20411;-55
2021/06/02 02:36:05;;;;;;;11.27;4.75;;;359.00;1689.60;;;;;;5031769;28;20017;-55
2021/06/02 02:38:47;;;;;;;9.20;4.97;;;359.00;1664.00;;;;;;5015324;28;20119;-55
2021/06/02 02:41:32;;;;;;;8.75;4.78;;;359.00;1664.00;;;;;;5031722;28;20038;-55
2021/06/02 02:44:19;;;;;;;6.32;4.82;;;359.10;1664.00;;;;;;5016012;28;20033;-55
2021/06/02 02:46:54;;;;;;;6.38;4.40;;;359.00;1664.00;;;;;;5001364;28;20037;-55
2021/06/02 02:49:23;;;;;;;6.63;4.68;;;359.00;1689.60;;;;;;5031570;28;20046;-55
2021/06/02 02:51:57;;;;;;;10.32;5.15;;;;;;;;;;5031614;28;20123;-55
2021/06/02 02:54:31;;;;;;;9.43;5.20;;;;;;;;;;5031658;28;20168;-55
2021/06/02 02:57:07;;;;;;;11.50;4.45;;;;;;;;;;5060192;28;20051;-56
2021/06/02 02:59:53;;;;;;;9.63;4.93;;;;;;;;;;5073405;28;20029;-54
2021/06/02 03:02:22;;;;;;;11.95;5.65;;;;;;;;;;5073750;28;20082;-55
2021/06/02 03:04:54;;;;;;;8.32;4.88;;;;;;;;;;5073405;28;20023;-55
2021/06/02 03:07:22;;;;;;;8.23;5.03;;;;;;;;;;5073343;28;20028;-54
2021/06/02 03:09:57;;;;;;;8.90;5.18;;;;;;;;;;5072073;28;20070;-55
2021/06/02 03:12:35;;;;;;;11.30;5.55;;;;;;;;;;5073288;28;20107;-54
2021/06/02 03:15:09;;;;;;;9.40;4.65;;;;;;;;;;5072041;28;20061;-55
2021/06/02 03:17:54;;;;;;;8.68;4.82;;;;;;;;;;5073363;28;20028;-66
2021/06/02 03:20:22;;;;;;;9.45;4.32;;;;;;;;;;5073558;28;20032;-66
2021/06/02 03:23:09;;;;;;;10.13;4.53;;;;;;;;;;5073225;28;20029;-54
2021/06/02 03:25:41;;;;;;;8.40;4.78;;;;;;;;;;5073394;28;20101;-66
2021/06/02 03:28:12;;;;;;;9.45;5.15;;;;;;;;;;5073076;28;20043;-54
2021/06/02 03:30:54;;;;;;;10.60;5.25;;;;;;;;;;5073761;28;20110;-66
2021/06/02 03:33:20;;;;;;;8.77;4.85;;;;;;;;;;5073402;28;20021;-55
2021/06/02 03:35:55;;;;;;;7.32;4.45;;;;;;;;;;5073132;28;20075;-55
2021/06/02 03:38:41;;;;;;;13.88;5.22;;;;;;;;;;5073077;28;20111;-54
2021/06/02 03:41:10;;;;;;;7.65;4.93;;;;;;;;;;5072982;28;20017;-66
2021/06/02 03:43:39;;;;;;;10.15;5.72;;;;;;;;;;5073072;28;20035;-67
2021/06/02 03:46:23;;;;;;;13.57;5.45;;;;;;;;;;5071739;28;20490;-55
2021/06/02 03:48:59;;;;;;;8.88;5.00;;;;;;;;;;5071642;28;20139;-55
2021/06/02 03:51:31;;;;;;;10.45;5.40;;;;;;;;;;5073239;28;20334;-54
2021/06/02 03:54:14;;;;;;;13.85;5.20;;;;;;;;;;5073229;28;20020;-55
2021/06/02 03:56:40;;;;;;;10.52;5.72;;;;;;;;;;5073923;28;20044;-67
2021/06/02 03:59:16;;;;;;;13.82;5.35;;;;;;;;;;5075452;28;20033;-55
2021/06/02 04:01:45;;;;;;;9.55;5.25;;;;;;;;;;5077037;28;20052;-67
2021/06/02 04:04:29;;;;;;;7.65;4.95;;;;;;;;;;5076662;28;20390;-54
2021/06/02 04:07:01;;;;;;;10.75;4.80;;;;;;;;;;5076677;28;20103;-55
2021/06/02 04:09:29;;;;;;;10.85;4.30;;;;;;;;;;5076988;28;20397;-55
2021/06/02 04:12:05;;;;;;;7.15;4.32;;;;;;;;;;5076739;28;20439;-55
2021/06/02 04:14:33;;;;;;;8.57;4.35;;;;;;;;;;5076531;28;20024;-55
2021/06/02 04:16:59;;;;;;;8.70;5.05;;;;;;;;;;5076402;28;20085;-67
2021/06/02 04:19:35;;;;;;;8.30;5.30;;;;;;;;;;5076350;28;20477;-55
2021/06/02 04:22:04;;;;;;;8.27;4.85;;;;;;;;;;5076241;28;20513;-55
2021/06/02 04:24:31;;;;;;;7.75;5.05;;;;;;;;;;5076559;28;20037;-55
2021/06/02 04:26:58;;;;;;;11.93;4.60;;;;;;;;;;5076388;28;20021;-65
2021/06/02 04:29:26;;;;;;;10.80;5.05;;;;;;;;;;5076302;28;20027;-55
2021/06/02 04:31:56;;;;;;;9.85;5.38;;;;;;;;;;5076212;28;20109;-55
2021/06/02 04:34:23;;;;;;;6.35;4.32;;;;;;;;;;5074827;28;20055;-55
2021/06/02 04:36:57;;;;;;;6.93;4.53;;;;;;;;;;5076054;28;20480;-55
2021/06/02 04:39:23;;;;;;;15.52;5.18;;;;;;;;;;5074749;28;20077;-55
2021/06/02 04:41:53;;;;;;;6.88;4.88;;;;;;;;;;5075966;28;20537;-68
2021/06/02 04:44:23;;;;;;;7.90;4.10;;;384.50;1638.40;;;;;;5075833;28;20508;-55
2021/06/02 04:46:49;;;;;;;7.75;5.18;;;384.30;1664.00;;;;;;5075904;28;20020;-55
2021/06/02 04:49:16;;;;;;;7.88;4.47;;;384.40;1638.40;;;;;;5075706;28;20048;-55
2021/06/02 04:51:42;;;;;;;6.60;4.50;;;384.40;1638.40;;;;;;5075772;28;20028;-55
2021/06/02 04:54:43;;;;;;;7.50;4.50;;;384.50;1664.00;;;;;;5074413;28;20082;-55
2021/06/02 04:57:27;;;;;;;9.80;5.45;;;384.50;1664.00;;;;;;5075513;28;20070;-55
2021/06/02 05:00:14;;;;;;;8.20;4.55;;;384.60;1664.00;;;;;;5075596;28;20031;-56
2021/06/02 05:03:27;;;;;;;6.50;4.22;;;384.70;1664.00;;;;;;5074331;28;20548;-55
2021/06/02 05:06:24;;;;;;;6.57;4.05;;;384.70;1664.00;;;;;;5075489;28;20028;-56
2021/06/02 05:09:04;;;;;;;6.18;4.32;;;384.70;1664.00;;;;;;5074539;28;20029;-59
2021/06/02 05:11:49;;;;;;;8.38;4.40;;;384.70;1689.60;;;;;;5075142;28;20046;-67
2021/06/02 05:14:58;;;;;;;10.20;4.50;;;384.80;1664.00;;;;;;5075419;28;20032;-55
2021/06/02 05:17:39;;;;;;;7.78;4.60;;;384.90;1689.60;;;;;;5058086;28;20043;-55
2021/06/02 05:20:23;;;;;;;12.95;5.25;;;384.90;1689.60;;;;;;5074779;28;20028;-55
2021/06/02 05:23:40;;;;;;;9.27;4.03;;;409.60;1715.20;;;;;;5072115;28;20091;-55
2021/06/02 05:26:33;;;;;;;6.93;4.03;;;409.60;1689.60;;;;;;5052057;28;20037;-55
2021/06/02 05:29:07;;;;;;;8.82;4.10;;;409.70;1689.60;;;;;;5051169;28;20044;-55
2021/06/02 05:31:58;;;;;;;;;;;409.70;1689.60;;;;;;5050866;28;20052;-55
2021/06/02 05:34:51;;;;;;;10.50;4.45;;;409.80;1689.60;;;;;;5051782;28;19919;-55
2021/06/02 05:37:29;;;;;;;8.50;4.05;;;409.80;1689.60;;;;;;5050999;28;20079;-55
2021/06/02 05:40:10;;;;;;;6.90;4.03;;;409.90;1664.00;;;;;;5052131;28;20041;-68
2021/06/02 05:43:13;;;;;;;8.30;4.63;;;409.90;1664.00;;;;;;5051734;28;20043;-55
2021/06/02 05:46:09;;;;;;;13.82;4.60;;;410.00;1689.60;;;;;;5047352;28;20025;-59
2021/06/02 05:48:53;;;;;;;6.88;3.90;;;410.00;1689.60;;;;;;5046762;28;20087;-67
2021/06/02 05:51:40;;;;;;;10.85;4.15;;;409.90;1715.20;;;;;;5050099;28;20025;-55
2021/06/02 05:54:38;;;;;;;8.40;3.85;;;410.00;1689.60;;;;;;5052133;28;20037;-55
2021/06/02 05:57:15;;;;;;;38.95;8.63;;;410.10;1715.20;;;;;;5052529;28;20103;-55
2021/06/02 05:59:50;;;;;;;104.93;18.05;;;410.20;1689.60;;;;;;5052212;28;20521;-55
2021/06/02 06:02:52;;;;;;;34.78;7.57;;;410.20;1715.20;;;;;;5053621;28;20099;-55
2021/06/02 06:05:37;;;;;;;13.13;4.35;;;410.30;1689.60;;;;;;5063110;28;20039;-55
2021/06/02 06:08:21;;;;;;;25.10;6.45;;;410.40;1689.60;;;;;;5072961;28;20033;-55
2021/06/02 06:11:12;;;;;;;7.75;3.35;;;435.20;1664.00;;;;;;5070609;28;20071;-55
2021/06/02 06:14:29;;;;;;;6.00;3.50;;;435.30;1638.40;;;;;;5071935;28;20082;-55
2021/06/02 06:17:25;;;;;;;6.47;3.78;;;435.50;1638.40;;;;;;5060784;28;20045;-55
2021/06/02 06:20:16;;;;;;;12.38;4.20;;;435.60;1664.00;;;;;;5073955;28;20029;-55
2021/06/02 06:23:12;;;;;;;6.78;4.20;;;435.80;1638.40;;;;;;5051782;28;20448;-67
2021/06/02 06:25:50;;;;;;;8.13;3.60;;;435.90;1612.80;;;;;;5051916;28;20116;-55
2021/06/02 06:28:54;;;;;;;7.72;3.47;;;436.00;1587.20;;;;;;5051143;28;20065;-55
2021/06/02 06:31:26;;;;;;;4.78;3.13;;;436.10;1561.60;;;;;;4973082;28;20042;-66
2021/06/02 06:33:55;;;;;;;8.60;3.80;;;460.90;1587.20;;;;;;4972363;28;20219;-55
2021/06/02 06:36:24;;;;;;;7.88;3.38;;;461.10;1561.60;;;;;;4972614;28;20057;-67
2021/06/02 06:39:02;;;;;;;4.68;3.58;;;461.20;1536.00;;;;;;4973249;28;20065;-55
2021/06/02 06:41:30;;;;;;;10.63;3.78;;;461.30;1536.00;;;;;;4972915;28;20053;-56
2021/06/02 06:43:58;;;;;;;4.55;3.30;;;461.30;1536.00;;;;;;4971107;28;20031;-56
2021/06/02 06:46:26;;;;;;;12.20;3.30;;;461.40;1510.40;;;;;;4972694;28;20587;-55
2021/06/02 06:48:56;;;;;;;8.13;3.33;;;461.50;1484.80;;;;;;4972987;28;20039;-55
2021/06/02 06:54:11;;;;;;;9.55;3.53;;;486.40;1484.80;;;;;;4990219;28;20041;-55
2021/06/02 06:56:38;;;;;;;12.57;3.15;;;461.70;1484.80;;;;;;5012046;28;20077;-55
2021/06/02 06:59:05;;;;;;;7.85;3.78;;;486.40;1459.20;;;;;;4995459;28;20088;-55
2021/06/02 07:01:33;;;;;;;6.80;3.50;;;486.50;1433.60;;;;;;5011772;28;20069;-55
2021/06/02 07:04:01;;;;;;;5.25;3.10;;;486.60;1459.20;;;;;;5011811;28;20032;-55
2021/06/02 07:06:27;;;;;;;6.05;2.63;;;486.60;1433.60;;;;;;5030706;28;20520;-55
2021/06/02 07:08:53;;;;;;;10.38;2.80;;;486.60;1408.00;;;;;;5073336;28;20136;-55
2021/06/02 07:11:20;;;;;;;5.38;2.67;;;486.80;1382.40;;;;;;5073354;28;20103;-66
2021/06/02 07:13:47;;;;;;;6.43;2.60;;;486.90;1356.80;;;;;;5073554;28;20033;-55
2021/06/02 07:16:14;;;;;;;7.35;2.78;;;486.90;1356.80;;;;;;5073203;28;20064;-61
2021/06/02 07:18:45;;;;;;;6.85;3.10;;;487.10;1382.40;;;;;;5073514;28;20031;-55
2021/06/02 07:21:12;;;;;;;7.55;2.70;;;487.10;1382.40;;;;;;5073264;28;20059;-55
2021/06/02 07:23:40;;;;;;;4.40;2.47;;;487.10;1356.80;;;;;;5073331;28;20449;-55
2021/06/02 07:26:06;;;;;;;8.38;2.33;;;487.10;1331.20;;;;;;5073226;28;20047;-55
2021/06/02 07:28:40;;;;;;;7.63;2.75;;;487.10;1331.20;;;;;;5073133;28;20040;-55
2021/06/02 07:31:07;;;;;;;5.22;2.45;;;487.30;1331.20;;;;;;5073601;28;20016;-55
2021/06/02 07:33:35;;;;;;;10.52;2.75;;;512.00;1254.40;;;;;;5077313;28;20404;-55
2021/06/02 07:36:01;;;;;;;6.88;2.55;;;512.10;1280.00;;;;;;5077543;28;20017;-55
2021/06/02 07:38:27;;;;;;;10.40;2.50;;;512.20;1280.00;;;;;;5076690;28;20477;-55
2021/06/02 07:40:54;;;;;;;6.75;2.65;;;512.20;1280.00;;;;;;5076908;28;20025;-68
2021/06/02 07:43:20;;;;;;;8.90;2.30;;;512.20;1254.40;;;;;;5076960;28;20059;-54
2021/06/02 07:45:46;;;;;;;7.82;1.98;;;512.20;1203.20;;;;;;5077003;28;20059;-55
2021/06/02 07:48:13;;;;;;;4.60;2.20;;;512.10;1228.80;;;;;;5077098;28;20419;-55
2021/06/02 07:50:39;;;;;;;5.90;2.20;;;512.30;1254.40;;;;;;5075637;28;20025;-55
2021/06/02 07:53:05;;;;;;;7.05;2.17;;;512.40;1254.40;;;;;;5075954;28;20032;-56
2021/06/02 07:55:31;;;;;;;8.18;2.90;;;512.50;1203.20;;;;;;5075919;28;20020;-68
2021/06/02 07:57:57;;;;;;;6.05;1.80;;;512.60;1254.40;;;;;;5076481;28;20044;-55
2021/06/02 08:00:24;;;;;;;4.55;2.03;;;512.60;1152.00;;;;;;5076736;28;20432;-56
2021/06/02 08:02:50;;;;;;;5.13;1.90;;;512.70;1177.60;;;;;;5076552;28;20024;-68
2021/06/02 08:05:16;;;;;;;9.15;2.70;;;512.70;1152.00;;;;;;5076738;28;20086;-55
2021/06/02 08:07:43;;;;;;;5.85;2.38;;;512.70;1152.00;;;;;;5076531;28;20038;-55
2021/06/02 08:10:14;;;;;;;7.47;2.55;;;512.80;1126.40;;;;;;5075254;28;20080;-55
2021/06/02 08:12:41;;;;;;;5.30;2.00;;;;;;;;;;5076360;28;20420;-55
2021/06/02 08:15:08;;;;;;;4.30;2.13;;;;;;;;;;5076645;28;20017;-55
2021/06/02 08:17:36;;;;;;;6.65;1.92;;;537.80;1075.20;;;;;;5076330;28;20492;-55
2021/06/02 08:20:08;;;;;;;6.78;1.67;;;537.60;1100.80;;;;;;5076348;28;20024;-55
2021/06/02 08:22:34;;;;;;;6.88;2.40;;;537.60;1024.00;;;;;;5076696;28;20027;-55
2021/06/02 08:25:06;;;;;;;3.33;2.17;;;537.60;1100.80;;;;;;5076577;28;20024;-55
2021/06/02 08:27:32;;;;;;;11.85;3.58;;;537.60;1075.20;;;;;;5074908;28;20477;-55
2021/06/02 08:29:58;;;;;;;5.50;1.75;;;537.60;1075.20;;;;;;5076176;28;20112;-55
2021/06/02 08:32:24;;;;;;;2.13;1.75;;;537.70;1024.00;;;;;;5076228;28;20481;-55
2021/06/02 08:34:51;;;;;;;6.22;2.00;;;537.80;998.40;;;;;;5075550;28;20055;-55
2021/06/02 08:37:17;;;;;;;5.40;1.73;;;537.70;1049.60;;;;;;5075581;28;20032;-55
2021/06/02 08:39:43;;;;;;;3.33;2.00;;;537.70;972.80;;;;;;5075437;28;20032;-55
2021/06/02 08:42:10;;;;;;;9.80;2.80;;;537.90;1024.00;;;;;;5075187;28;20469;-55
2021/06/02 08:44:36;;;;;;;7.20;2.08;;;538.00;1075.20;;;;;;5074627;28;20470;-55
2021/06/02 08:47:03;;;;;;;5.72;2.25;;;538.10;998.40;;;;;;5074417;28;20020;-56
2021/06/02 08:49:30;;;;;;;3.17;1.85;;;538.00;998.40;;;;;;5075225;28;20025;-55
2021/06/02 08:51:56;;;;;;;4.07;1.80;;;537.90;972.80;;;;;;5075523;28;20024;-55
2021/06/02 08:54:23;;;;;;;5.97;2.45;;;537.60;998.40;;;;;;5075707;28;20028;-55
2021/06/02 08:56:49;;;;;;;4.95;2.00;;;512.90;972.80;;;;;;5074152;28;20152;-56
2021/06/02 08:59:17;;;;;;;12.43;4.97;;;512.90;972.80;;;;;;5075539;28;20023;-55
2021/06/02 09:01:43;;;;;;;16.88;4.75;;;537.60;1024.00;;;;;;5075501;28;20039;-55
2021/06/02 09:04:10;;;;;;;12.18;3.72;;;537.70;1024.00;;;;;;5075588;28;20020;-55
2021/06/02 09:06:39;;;;;;;11.15;3.58;;;537.80;972.80;;;;;;5075377;28;20059;-55
2021/06/02 09:09:05;;;;;;;12.93;4.03;;;537.90;998.40;;;;;;5075249;28;20060;-55
2021/06/02 09:11:43;;;;;;;21.42;4.75;;;538.00;998.40;;;;;;5075383;28;20024;-55
2021/06/02 09:14:29;;;;;;;9.98;2.58;;;538.10;1049.60;;;;;;5075579;28;20430;-55
2021/06/02 09:16:57;;;;;;;13.15;2.97;;;;;;;;;;5075477;28;20028;-55
2021/06/02 09:19:42;;;;;;;5.63;2.15;;;;;;;;;;5075260;28;20067;-55
2021/06/02 09:22:10;;;;;;;10.88;2.97;;;;;;;;;;5076090;28;20032;-55
2021/06/02 09:24:45;;;;;;;8.55;4.68;;;;;;;;;;5073928;28;20381;-55
2021/06/02 09:27:12;;;;;;;10.15;6.43;;;538.40;1100.80;;;;;;5075400;28;20048;-55
2021/06/02 09:29:55;;;;;;;9.82;3.25;;;538.30;1024.00;;;;;;5074705;28;20385;-68
2021/06/02 09:32:22;;;;;;;4.70;2.00;;;538.20;998.40;;;;;;5074864;28;20020;-57
2021/06/02 09:34:49;;;;;;;6.53;2.20;;;538.20;1024.00;;;;;;5075106;28;20082;-68
2021/06/02 09:37:15;;;;;;;10.38;3.17;;;538.10;1024.00;;;;;;5074425;28;20028;-59
2021/06/02 09:39:43;;;;;;;7.85;2.80;;;538.20;1024.00;;;;;;5074815;28;20020;-63
2021/06/02 09:42:26;;;;;;;11.13;2.55;;;538.40;998.40;;;;;;5074869;28;20024;-68
2021/06/02 09:45:05;;;;;;;3.38;1.90;;;538.50;998.40;;;;;;5074729;28;20017;-55
2021/06/02 09:47:44;;;;;;;4.45;2.00;;;538.40;998.40;;;;;;5074581;28;20500;-55
2021/06/02 09:50:11;;;;;;;4.53;3.08;;;538.40;1024.00;;;;;;5074495;28;20030;-58
2021/06/02 09:52:49;;;;;;;9.80;3.17;;;538.40;998.40;;;;;;5074378;28;20481;-60
2021/06/02 09:55:24;;;;;;;4.60;2.30;;;538.40;998.40;;;;;;5074270;28;20461;-55
2021/06/02 09:58:02;;;;;;;6.05;2.30;;;563.20;972.80;;;;;;5074335;28;20052;-55
2021/06/02 10:00:29;;;;;;;8.90;4.20;;;563.20;998.40;;;;;;5074315;28;20019;-56
2021/06/02 10:03:00;;;;;;;5.13;2.15;;;563.20;1075.20;;;;;;5074181;28;20112;-55
2021/06/02 10:05:39;;;;;;;3.67;1.88;;;538.50;972.80;;;;;;5074200;28;20020;-55
2021/06/02 10:08:07;;;;;;;6.50;2.30;;;538.40;947.20;;;;;;5074313;28;20032;-55
2021/06/02 10:10:34;;;;;;;10.50;2.20;;;538.50;947.20;;;;;;5074143;28;20481;-55
2021/06/02 10:13:11;;;;;;;8.52;2.60;;;538.50;998.40;;;;;;5074081;28;20107;-55
2021/06/02 10:15:39;;;;;;;21.40;4.25;;;538.50;998.40;;;;;;5074145;28;20024;-55
2021/06/02 10:18:22;;;;;;;10.85;3.60;;;538.50;1049.60;;;;;;5074023;28;20107;-55
2021/06/02 10:21:03;;;;;;;;;;;538.50;1024.00;;;;;;5074522;28;20020;-61
2021/06/02 10:23:31;;;;;;;18.63;6.70;;;538.40;1049.60;;;;;;5073922;28;20315;-57
2021/06/02 10:25:58;;;;;;;9.35;4.65;;;538.30;998.40;;;;;;5073866;28;20028;-56
2021/06/02 10:28:28;;;;;;;7.95;2.47;;;538.20;998.40;;;;;;5074152;28;20078;-62
2021/06/02 10:30:54;;;;;;;6.70;2.28;;;538.30;998.40;;;;;;5073642;28;20090;-56
2021/06/02 10:33:19;;;;;;;6.72;2.50;;;538.50;947.20;;;;;;5073923;28;20029;-67
2021/06/02 10:35:45;;;;;;;9.00;3.03;;;538.50;947.20;;;;;;5073700;28;20401;-56
2021/06/02 10:38:13;;;;;;;6.05;2.22;;;563.20;1049.60;;;;;;5073647;28;20029;-65
2021/06/02 10:40:41;;;;;;;6.50;2.10;;;563.20;998.40;;;;;;5073578;28;20389;-66
2021/06/02 10:43:10;;;;;;;12.50;3.58;;;563.20;998.40;;;;;;5073940;28;20028;-56
2021/06/02 10:45:38;;;;;;;7.90;3.00;;;563.20;1049.60;;;;;;5073194;28;20130;-56
2021/06/02 10:48:05;;;;;;;11.48;2.60;;;563.30;998.40;;;;;;5071823;28;20040;-58
2021/06/02 10:50:39;;;;;;;5.65;2.00;;;563.40;947.20;;;;;;5072981;28;20539;-56
2021/06/02 10:53:25;;;;;;;20.50;3.25;;;563.50;1075.20;;;;;;5072291;28;20046;-64
2021/06/02 10:56:01;;;;;;;10.80;2.35;;;563.50;1126.40;;;;;;5073053;28;20025;-58
2021/06/02 10:58:47;;;;;;;12.40;2.88;;;563.60;972.80;;;;;;5071728;28;20115;-57
2021/06/02 11:01:20;;;;;;;31.85;4.70;;;563.50;947.20;;;;;;5072799;28;20056;-64
2021/06/02 11:04:06;;;;;;;11.27;2.30;;;563.60;1049.60;;;;;;5071517;28;20112;-58
2021/06/02 11:06:34;;;;;;;10.00;2.33;;;563.60;947.20;;;;;;5071494;28;20025;-57
2021/06/02 11:09:04;;;;;;;20.23;3.45;;;563.70;998.40;;;;;;5071093;28;20029;-56
2021/06/02 11:11:39;;;;;;;17.05;2.65;;;563.70;1024.00;;;;;;5071599;28;20536;-57
2021/06/02 11:14:17;;;;;;;12.82;2.92;;;563.70;921.60;;;;;;5072232;28;20066;-65
2021/06/02 11:17:08;;;;;;;7.93;2.80;;;563.70;1075.20;;;;;;5071799;28;20016;-56
2021/06/02 11:19:41;;;;;;;7.70;2.03;;;563.80;1049.60;;;;;;5072986;28;20070;-61
2021/06/02 11:22:09;;;;;;;8.07;2.00;;;563.80;947.20;;;;;;5073186;28;20023;-56
2021/06/02 11:24:37;;;;;;;8.70;2.08;;;563.80;972.80;;;;;;5071667;28;20427;-56
2021/06/02 11:27:13;;;;;;;10.15;2.47;;;563.60;998.40;;;;;;5072952;28;20048;-59
2021/06/02 11:29:47;;;;;;;13.32;2.58;;;563.60;998.40;;;;;;5072928;28;20538;-56
2021/06/02 11:32:32;;;;;;;3.70;1.40;;;563.60;972.80;;;;;;5073001;28;20025;-57
2021/06/02 11:35:00;;;;;;;9.23;2.55;;;563.50;947.20;;;;;;5073135;28;20381;-56
2021/06/02 11:37:28;;;;;;;6.43;2.00;;;563.50;998.40;;;;;;5072858;28;20021;-56
2021/06/02 11:39:59;;;;;;;4.97;1.88;;;563.80;972.80;;;;;;5072795;28;20461;-56
2021/06/02 11:42:34;;;;;;;13.23;2.25;;;563.60;998.40;;;;;;5073114;28;20527;-55
2021/06/02 11:45:05;;;;;;;5.55;2.00;;;563.80;1024.00;;;;;;5071718;28;20032;-55
2021/06/02 11:47:31;;;;;;;6.63;1.80;;;563.80;972.80;;;;;;5072866;28;20051;-56
2021/06/02 11:50:02;;;;;;;5.28;1.80;;;564.00;998.40;;;;;;5073193;28;20054;-56
2021/06/02 11:52:28;;;;;;;5.85;1.90;;;564.00;947.20;;;;;;5073130;28;20025;-56
2021/06/02 11:55:00;;;;;;;2.55;1.30;;;564.00;921.60;;;;;;5072864;28;20029;-56
2021/06/02 11:57:31;;;;;;;4.80;1.70;;;564.00;947.20;;;;;;5072900;28;20136;-55
2021/06/02 11:59:59;;;;;;;58.17;3.63;;;564.00;972.80;;;;;;5073248;28;20028;-61
2021/06/02 12:02:25;;;;;;;3.17;1.63;;;564.00;972.80;;;;;;5072722;28;20025;-62
2021/06/02 12:04:51;;;;;;;12.05;2.67;;;564.10;972.80;;;;;;5072730;28;20544;-60
2021/06/02 12:07:27;;;;;;;3.35;1.95;;;588.90;1075.20;;;;;;5072638;28;20112;-55
2021/06/02 12:09:55;;;;;;;6.32;2.08;;;588.90;896.00;;;;;;5072711;28;20107;-59
2021/06/02 12:12:25;;;;;;;6.20;2.00;;;588.90;972.80;;;;;;5073108;28;20073;-60
2021/06/02 12:14:52;;;;;;;14.88;1.95;;;589.00;921.60;;;;;;5072628;28;20033;-62
2021/06/02 12:17:19;;;;;;;11.52;2.50;;;589.00;896.00;;;;;;5073323;28;20155;-56
2021/06/02 12:19:47;;;;;;;3.47;1.92;;;589.00;947.20;;;;;;5076243;28;20021;-56
2021/06/02 12:22:19;;;;;;;8.57;1.90;;;588.90;972.80;;;;;;5076482;28;20029;-56
2021/06/02 12:25:08;;;;;;;5.27;1.97;;;588.80;896.00;;;;;;5076130;28;20016;-61
2021/06/02 12:27:38;;;;;;;4.32;2.20;;;564.10;947.20;;;;;;5076347;28;20386;-63
2021/06/02 12:30:09;;;;;;;4.05;1.58;;;563.90;972.80;;;;;;5075827;28;20032;-56
2021/06/02 12:32:51;;;;;;;4.55;2.05;;;563.90;947.20;;;;;;5076035;28;20108;-61
2021/06/02 12:35:37;;;;;;;3.05;1.60;;;564.00;1024.00;;;;;;5075997;28;20021;-55
2021/06/02 12:38:14;;;;;;;3.90;2.00;;;564.10;947.20;;;;;;5075512;28;20036;-55
2021/06/02 12:40:46;;;;;;;2.78;1.60;;;588.80;947.20;;;;;;5075564;28;20025;-62
2021/06/02 12:43:29;;;;;;;3.08;1.83;;;588.80;921.60;;;;;;5074984;28;20020;-56
2021/06/02 12:46:11;;;;;;;8.20;2.20;;;588.80;921.60;;;;;;5074323;28;20031;-56
2021/06/02 12:48:38;;;;;;;25.25;3.28;;;588.80;947.20;;;;;;5075277;28;20043;-56
2021/06/02 12:51:06;;;;;;;6.70;2.17;;;588.80;947.20;;;;;;5075756;28;20025;-55
2021/06/02 12:53:37;;;;;;;4.28;1.90;;;564.10;947.20;;;;;;5076272;28;20021;-55
2021/06/02 12:56:04;;;;;;;5.32;2.10;;;588.80;921.60;;;;;;5075530;28;20024;-56
2021/06/02 12:58:33;;;;;;;7.10;2.55;;;589.00;947.20;;;;;;5075136;28;20154;-55
2021/06/02 13:01:13;;;;;;;3.75;1.90;;;589.00;972.80;;;;;;5075362;28;20017;-56
2021/06/02 13:03:53;;;;;;;5.47;2.00;;;589.00;896.00;;;;;;5071628;28;20025;-55
2021/06/02 13:06:22;;;;;;;13.57;3.05;;;589.00;921.60;;;;;;5072211;28;20016;-56
2021/06/02 13:08:49;;;;;;;3.80;1.90;;;588.90;998.40;;;;;;5073161;28;20055;-55
2021/06/02 13:11:29;;;;;;;25.50;3.55;;;588.80;947.20;;;;;;5073894;28;20013;-55
2021/06/02 13:14:00;;;;;;;10.10;3.20;;;588.80;972.80;;;;;;5074136;28;20069;-55
2021/06/02 13:16:27;;;;;;;12.40;3.30;;;564.10;972.80;;;;;;5074934;28;20042;-55